Time;durP1;ratioP1;P1;durP2;ratioP2;P2;SDS_P1;SDS_P2;PMS_P1;PMS_P2;Temp;Humidity;BMP_temperature;BMP_pressure;BME280_temperature;BME280_humidity;BME280_pressure;Samples;Min_cycle;Max_cycle;Signal;HPM_P1;HPM_P2
2021/12/06 00:00:35;;;;;;;45.93;24.00;;;;;;;1.02;86.05;94526.68;1785101;80;20999;-76
2021/12/06 00:03:08;;;;;;;42.13;22.97;;;;;;;0.99;85.43;94518.89;1784983;80;21542;-76
2021/12/06 00:05:36;;;;;;;42.90;23.03;;;;;;;0.89;85.09;94516.72;1785023;80;21011;-76
2021/12/06 00:08:04;;;;;;;35.90;20.07;;;;;;;0.78;85.12;94519.31;1784801;80;21866;-76
2021/12/06 00:10:32;;;;;;;32.93;18.10;;;;;;;0.77;85.32;94513.66;1785207;80;21016;-77
2021/12/06 00:12:58;;;;;;;31.57;18.67;;;;;;;0.75;85.31;94511.48;1784740;80;21029;-76
2021/12/06 00:15:31;;;;;;;26.63;13.67;;;;;;;0.72;85.11;94508.89;1785160;80;20995;-77
2021/12/06 00:17:55;;;;;;;24.80;15.27;;;;;;;0.68;85.31;94507.18;1784563;80;21572;-77
2021/12/06 00:20:21;;;;;;;25.63;15.67;;;;;;;0.65;85.67;94514.94;1784188;80;21027;-76
2021/12/06 00:22:48;;;;;;;23.63;14.83;;;;;;;0.64;85.57;94517.97;1786590;80;21003;-76
2021/12/06 00:25:15;;;;;;;45.60;24.87;;;;;;;0.60;85.95;94515.36;1787201;79;21022;-76
2021/12/06 00:27:42;;;;;;;74.00;37.57;;;;;;;0.59;86.40;94517.09;1787665;79;21010;-77
2021/12/06 00:30:15;;;;;;;66.17;34.87;;;;;;;0.58;86.22;94522.27;1787411;80;21026;-76
2021/12/06 00:32:42;;;;;;;67.45;33.55;;;;;;;0.56;86.52;94513.64;1787775;80;20983;-77
2021/12/06 00:35:19;;;;;;;65.17;36.03;;;;;;;0.60;86.49;94518.81;1787726;80;21520;-76
2021/12/06 00:37:53;;;;;;;;;;;;;;;0.56;86.84;94505.85;1789755;80;21045;-77
2021/12/06 00:40:12;;;;;;;65.87;34.40;;;;;;;0.57;87.11;94505.84;1785551;80;20088;-76
2021/12/06 00:42:38;;;;;;;55.20;30.47;;;;;;;0.57;87.03;94519.25;1787743;80;21082;-76
2021/12/06 00:45:08;;;;;;;57.47;28.97;;;;;;;0.53;87.36;94505.82;1768225;81;21027;-76
2021/12/06 00:47:35;;;;;;;55.00;30.60;;;;;;;0.64;87.65;94504.13;1768154;81;21144;-77
2021/12/06 00:50:04;;;;;;;39.97;21.70;;;;;;;0.76;87.84;94508.05;1768125;81;21504;-77
2021/12/06 00:52:31;;;;;;;40.33;23.00;;;;;;;0.82;87.38;94511.94;1768294;81;21022;-76
2021/12/06 00:54:58;;;;;;;42.00;23.50;;;;;;;0.80;87.11;94512.80;1767915;81;21105;-77
2021/12/06 00:57:24;;;;;;;54.37;27.57;;;;;;;0.82;87.11;94509.34;1768233;81;20990;-76
2021/12/06 00:59:52;;;;;;;51.57;25.87;;;;;;;0.79;86.98;94511.08;1768014;81;21490;-76
2021/12/06 01:02:19;;;;;;;55.57;27.03;;;;;;;0.80;87.13;94514.95;1768358;81;21018;-77
2021/12/06 01:04:48;;;;;;;52.83;27.23;;;;;;;0.84;87.05;94512.81;1767844;81;21095;-77
2021/12/06 01:07:16;;;;;;;35.07;19.70;;;;;;;0.86;87.31;94506.33;1767835;81;21026;-77
2021/12/06 01:09:43;;;;;;;44.20;23.70;;;;;;;0.83;86.87;94513.69;1767985;81;21033;-77
2021/12/06 01:12:11;;;;;;;43.13;24.47;;;;;;;0.78;86.85;94498.53;1767973;81;21003;-77
2021/12/06 01:14:38;;;;;;;39.90;23.20;;;;;;;0.78;86.98;94504.14;1767896;81;21109;-76
2021/12/06 01:17:07;;;;;;;32.33;19.73;;;;;;;0.77;86.89;94514.96;1768002;81;21082;-77
2021/12/06 01:19:36;;;;;;;21.77;13.77;;;;;;;0.83;87.34;94511.09;1768215;81;21093;-77
2021/12/06 01:22:17;;;;;;;30.27;16.80;;;;;;;0.83;86.87;94510.20;1761793;81;21164;-77
2021/12/06 01:24:43;;;;;;;21.23;14.05;;;;;;;0.76;86.85;94495.06;1737627;81;21626;-76
2021/12/06 01:27:26;;;;;;;23.00;14.07;;;;;;;0.78;86.94;94497.64;1766682;81;21044;-77
2021/12/06 01:30:04;;;;;;;25.07;13.33;;;;;;;0.75;87.01;94502.41;1763174;81;21022;-77
2021/12/06 01:40:22;;;;;;;31.47;17.37;;;;;;;0.70;87.03;94478.16;1717459;83;21047;-77
2021/12/06 01:42:49;;;;;;;38.43;21.53;;;;;;;0.68;86.94;94485.11;1717478;83;21501;-77
2021/12/06 01:45:17;;;;;;;37.87;22.23;;;;;;;0.69;87.58;94481.64;1735723;81;20974;-77
2021/12/06 01:47:44;;;;;;;41.37;22.67;;;;;;;0.75;87.97;94480.77;1767444;81;21068;-77
2021/12/06 01:50:18;;;;;;;43.43;23.53;;;;;;;0.85;87.95;94474.28;1766742;81;21523;-76
2021/12/06 01:52:51;;;;;;;39.50;22.48;;;;;;;0.94;87.93;94465.64;1767286;81;20992;-76
2021/12/06 01:55:26;;;;;;;42.08;22.45;;;;;;;0.98;87.62;94469.09;1767690;81;21077;-77
2021/12/06 01:57:54;;;;;;;34.70;19.20;;;;;;;1.00;87.54;94469.52;1767115;81;21036;-77
2021/12/06 02:00:47;;;;;;;38.53;22.47;;;;;;;1.11;87.68;94464.35;1767473;81;21024;-77
2021/12/06 02:03:16;;;;;;;42.07;22.30;;;;;;;1.14;87.47;94460.44;1767450;81;20985;-77
2021/12/06 02:05:48;;;;;;;47.23;25.30;;;;;;;1.13;87.22;94455.23;1767042;81;21025;-77
2021/12/06 02:08:17;;;;;;;44.13;25.57;;;;;;;1.17;87.20;94448.74;1767562;81;21475;-77
2021/12/06 02:10:45;;;;;;;43.13;24.47;;;;;;;1.20;87.33;94444.84;1737274;81;21088;-77
2021/12/06 02:13:14;;;;;;;40.10;22.50;;;;;;;1.22;87.16;94442.25;1767180;81;21016;-77
2021/12/06 02:15:47;;;;;;;42.87;25.03;;;;;;;1.26;87.28;94440.05;1767360;81;21005;-77
2021/12/06 02:18:27;;;;;;;44.20;24.70;;;;;;;1.22;86.73;94433.16;1766688;81;21026;-77
2021/12/06 02:20:49;;;;;;;47.03;24.67;;;;;;;1.14;86.52;94429.71;1735199;81;21044;-77
2021/12/06 02:23:14;;;;;;;40.07;22.37;;;;;;;1.13;86.82;94430.12;1753854;81;21026;-77
2021/12/06 02:25:41;;;;;;;40.40;20.73;;;;;;;1.12;86.57;94428.40;1759755;81;21531;-76
2021/12/06 02:28:08;;;;;;;47.70;24.93;;;;;;;1.01;86.06;94428.86;1759990;81;21037;-77
2021/12/06 02:30:35;;;;;;;42.60;22.53;;;;;;;0.92;85.91;94429.71;1759981;81;21069;-77
2021/12/06 02:33:02;;;;;;;44.83;24.80;;;;;;;0.88;86.20;94428.41;1759773;81;21046;-76
2021/12/06 02:35:30;;;;;;;41.73;23.47;;;;;;;0.89;86.49;94427.13;1760078;81;21019;-77
2021/12/06 02:38:02;;;;;;;46.83;24.70;;;;;;;0.90;86.59;94426.24;1760149;81;20987;-77
2021/12/06 02:40:32;;;;;;;52.93;27.60;;;;;;;0.98;86.81;94433.62;1760217;81;21079;-77
2021/12/06 02:43:02;;;;;;;36.87;19.87;;;;;;;1.09;87.06;94425.81;1760533;81;21390;-77
2021/12/06 02:45:30;;;;;;;34.50;19.67;;;;;;;1.13;86.60;94424.92;1760041;81;21019;-77
2021/12/06 02:48:01;;;;;;;55.03;27.03;;;;;;;1.10;86.35;94418.44;1760073;81;21535;-77
2021/12/06 02:50:35;;;;;;;29.27;16.67;;;;;;;1.15;86.51;94414.09;1759832;81;21077;-77
2021/12/06 02:53:02;;;;;;;29.90;15.33;;;;;;;1.08;85.90;94413.67;1759330;81;21142;-77
2021/12/06 02:55:37;;;;;;;29.23;15.70;;;;;;;1.03;86.25;94416.70;1760201;81;20979;-77
2021/12/06 02:58:21;;;;;;;26.47;15.97;;;;;;;1.05;86.19;94422.77;1759866;81;21042;-76
2021/12/06 03:00:53;;;;;;;31.40;16.67;;;;;;;1.10;86.86;94421.03;1759329;81;21058;-77
2021/12/06 03:03:21;;;;;;;32.10;17.43;;;;;;;1.13;86.72;94424.92;1760064;81;21038;-77
2021/12/06 03:05:50;;;;;;;29.20;16.83;;;;;;;1.08;86.30;94426.66;1759983;81;21010;-77
2021/12/06 03:08:50;;;;;;;25.47;15.87;;;;;;;1.05;86.53;94422.77;1760044;81;21487;-76
2021/12/06 03:11:23;;;;;;;28.37;17.67;;;;;;;1.04;86.48;94423.66;1760231;81;21089;-76
2021/12/06 03:13:51;;;;;;;34.13;19.07;;;;;;;1.03;86.59;94427.09;1759460;81;21010;-76
2021/12/06 03:16:19;;;;;;;36.53;19.77;;;;;;;0.98;86.73;94432.73;1760101;81;21021;-77
2021/12/06 03:18:49;;;;;;;21.87;13.57;;;;;;;0.97;86.53;94427.12;1760382;81;21021;-77
2021/12/06 03:21:18;;;;;;;28.23;16.83;;;;;;;1.00;86.36;94420.17;1760010;81;21471;-76
2021/12/06 03:23:47;;;;;;;23.67;15.23;;;;;;;0.96;86.09;94417.58;1756649;81;21091;-77
2021/12/06 03:26:15;;;;;;;27.17;15.87;;;;;;;0.93;86.16;94422.78;1755826;82;21595;-77
2021/12/06 03:28:44;;;;;;;28.23;14.87;;;;;;;0.88;86.37;94429.70;1728841;82;21022;-77
2021/12/06 03:31:13;;;;;;;24.90;14.83;;;;;;;0.85;86.32;94427.53;1767409;81;21001;-77
2021/12/06 03:33:44;;;;;;;27.97;14.37;;;;;;;0.86;86.67;94430.59;1767142;81;21064;-77
2021/12/06 03:36:12;;;;;;;25.10;14.10;;;;;;;0.90;87.02;94429.28;1767210;81;21502;-77
2021/12/06 03:38:41;;;;;;;23.27;13.43;;;;;;;0.97;87.15;94425.82;1767460;81;21550;-77
2021/12/06 03:41:12;;;;;;;22.53;13.87;;;;;;;1.05;87.43;94415.84;1767078;81;21017;-77
2021/12/06 03:43:42;;;;;;;33.83;19.17;;;;;;;1.14;87.22;94424.52;1767282;81;21037;-78
2021/12/06 03:46:11;;;;;;;30.90;18.30;;;;;;;1.20;87.34;94417.55;1767531;81;21486;-77
2021/12/06 03:48:39;;;;;;;42.10;21.97;;;;;;;1.16;87.08;94417.55;1767339;81;21570;-78
2021/12/06 03:51:07;;;;;;;40.83;23.50;;;;;;;1.21;87.21;94413.22;1767196;81;21053;-77
2021/12/06 03:53:34;;;;;;;45.60;24.53;;;;;;;1.32;87.40;94412.78;1767080;81;21043;-77
2021/12/06 03:56:01;;;;;;;45.10;23.27;;;;;;;1.40;87.23;94414.06;1767238;81;21019;-77
2021/12/06 03:58:29;;;;;;;44.67;25.20;;;;;;;1.33;86.57;94412.34;1767122;81;21025;-77
2021/12/06 04:00:56;;;;;;;46.53;24.83;;;;;;;1.20;86.05;94414.09;1767056;81;21087;-77
2021/12/06 04:03:27;;;;;;;42.80;22.30;;;;;;;1.16;86.06;94417.55;1767249;81;20958;-77
2021/12/06 04:05:56;;;;;;;44.73;25.07;;;;;;;1.13;86.22;94426.66;1766963;81;21049;-77
2021/12/06 04:08:25;;;;;;;38.27;20.43;;;;;;;1.18;86.53;94424.92;1767029;81;21059;-77
2021/12/06 04:10:55;;;;;;;33.73;18.57;;;;;;;1.12;86.14;94423.20;1767347;81;20973;-77
2021/12/06 04:13:22;;;;;;;38.03;21.33;;;;;;;0.99;86.00;94434.48;1767097;81;21069;-78
2021/12/06 04:15:51;;;;;;;31.73;18.40;;;;;;;0.93;86.21;94437.06;1767376;81;20962;-77
2021/12/06 04:18:19;;;;;;;36.43;19.90;;;;;;;0.94;86.35;94432.32;1767438;81;21595;-77
2021/12/06 04:20:46;;;;;;;40.50;22.33;;;;;;;0.97;86.60;94434.91;1766980;81;21033;-78
2021/12/06 04:23:14;;;;;;;36.83;19.20;;;;;;;1.05;86.86;94435.32;1739599;81;21038;-78
2021/12/06 04:25:41;;;;;;;28.37;16.67;;;;;;;1.09;86.62;94442.70;1770279;81;21016;-77
2021/12/06 04:28:13;;;;;;;28.53;16.40;;;;;;;1.10;86.46;94435.77;1800766;80;21603;-78
2021/12/06 04:30:39;;;;;;;29.00;16.97;;;;;;;1.07;86.20;94440.53;1801941;80;21006;-78
2021/12/06 04:33:07;;;;;;;31.93;17.47;;;;;;;1.05;86.57;94446.16;1801500;80;21101;-77
2021/12/06 04:35:36;;;;;;;38.57;21.77;;;;;;;1.03;86.45;94444.87;1801562;80;21010;-77
2021/12/06 04:38:06;;;;;;;41.50;22.90;;;;;;;1.00;86.81;94440.95;1772569;80;21006;-78
2021/12/06 04:40:35;;;;;;;40.20;21.47;;;;;;;1.03;87.09;94444.87;1801965;80;21464;-78
2021/12/06 04:43:02;;;;;;;46.83;24.93;;;;;;;1.08;87.16;94444.84;1801798;80;21126;-77
2021/12/06 04:45:30;;;;;;;37.40;21.83;;;;;;;1.08;86.91;94444.84;1772823;80;21045;-78
2021/12/06 04:47:58;;;;;;;33.43;19.10;;;;;;;1.14;87.00;94444.86;1801610;80;21080;-77
2021/12/06 04:50:31;;;;;;;33.83;19.87;;;;;;;1.15;86.90;94443.98;1801601;80;21038;-77
2021/12/06 04:53:06;;;;;;;35.92;20.70;;;;;;;1.11;86.72;94452.66;1801840;80;21061;-77
2021/12/06 04:55:45;;;;;;;40.63;22.67;;;;;;;1.02;86.62;94451.36;1801525;80;21049;-77
2021/12/06 04:58:20;;;;;;;29.53;17.07;;;;;;;0.96;86.81;94445.73;1801555;80;21025;-77
2021/12/06 05:00:53;;;;;;;30.43;17.27;;;;;;;1.03;87.40;94445.28;1801817;80;21610;-76
2021/12/06 05:03:20;;;;;;;26.17;14.07;;;;;;;1.03;87.24;94442.69;1773423;80;21555;-77
2021/12/06 05:05:52;;;;;;;26.37;15.83;;;;;;;0.99;86.98;94448.77;1801510;80;21187;-77
2021/12/06 05:08:24;;;;;;;32.33;19.97;;;;;;;0.99;87.08;94448.77;1802196;80;21081;-77
2021/12/06 05:10:55;;;;;;;35.63;18.57;;;;;;;1.02;87.05;94450.06;1801863;80;21025;-78
2021/12/06 05:13:25;;;;;;;40.07;23.10;;;;;;;1.07;87.05;94443.98;1801738;80;21049;-77
2021/12/06 05:15:52;;;;;;;34.77;19.40;;;;;;;1.10;87.17;94450.05;1801972;80;20958;-78
2021/12/06 05:18:19;;;;;;;35.60;20.63;;;;;;;1.15;87.31;94449.17;1801808;80;21029;-77
2021/12/06 05:20:46;;;;;;;29.03;17.33;;;;;;;1.17;86.97;94449.19;1801630;80;21018;-78
2021/12/06 05:23:14;;;;;;;33.43;19.47;;;;;;;1.08;86.50;94456.53;1795386;80;21070;-77
2021/12/06 05:25:41;;;;;;;30.03;17.03;;;;;;;1.01;86.49;94458.73;1787711;79;21014;-77
2021/12/06 05:28:09;;;;;;;29.23;17.07;;;;;;;1.04;86.75;94454.83;1787374;79;21073;-74
2021/12/06 05:30:38;;;;;;;30.37;16.80;;;;;;;1.02;86.63;94460.01;1787797;80;21480;-77
2021/12/06 05:33:07;;;;;;;28.43;17.07;;;;;;;0.98;86.47;94454.81;1787758;80;21030;-77
2021/12/06 05:35:34;;;;;;;38.53;20.50;;;;;;;0.95;86.82;94452.22;1787527;80;21077;-77
2021/12/06 05:38:03;;;;;;;30.63;17.73;;;;;;;0.98;87.10;94453.10;1787519;80;21070;-77
2021/12/06 05:40:33;;;;;;;31.97;18.43;;;;;;;1.07;87.20;94460.02;1787716;80;21071;-78
2021/12/06 05:43:03;;;;;;;33.37;18.80;;;;;;;1.12;87.11;94452.22;1787729;80;21022;-77
2021/12/06 05:45:33;;;;;;;32.20;17.30;;;;;;;1.16;87.31;94453.93;1787736;80;20975;-77
2021/12/06 05:48:00;;;;;;;29.20;17.43;;;;;;;1.17;87.11;94454.38;1787668;80;21101;-79
2021/12/06 05:50:27;;;;;;;30.43;17.07;;;;;;;1.18;87.03;94455.66;1787319;79;21082;-77
2021/12/06 05:52:56;;;;;;;29.73;17.70;;;;;;;1.13;86.70;94461.29;1787377;80;21057;-83
2021/12/06 05:55:27;;;;;;;33.60;18.33;;;;;;;1.12;86.95;94462.61;1787702;79;21563;-74
2021/12/06 05:57:59;;;;;;;22.40;13.97;;;;;;;1.19;87.26;94463.05;1787520;79;21038;-80
2021/12/06 06:00:28;;;;;;;30.37;16.20;;;;;;;1.14;86.82;94458.28;1787247;80;21026;-74
2021/12/06 06:02:55;;;;;;;25.20;15.17;;;;;;;1.07;86.86;94460.87;1787678;80;21015;-79
2021/12/06 06:05:22;;;;;;;32.67;16.97;;;;;;;1.02;86.56;94463.05;1784189;80;21565;-75
2021/12/06 06:07:49;;;;;;;42.90;25.40;;;;;;;0.96;86.64;94456.12;1786856;80;21095;-75
2021/12/06 06:10:16;;;;;;;38.50;22.20;;;;;;;0.99;86.79;94457.86;1787387;80;21079;-77
2021/12/06 06:12:43;;;;;;;37.50;21.60;;;;;;;1.01;86.91;94452.23;1787090;80;21024;-78
2021/12/06 06:15:11;;;;;;;30.17;17.87;;;;;;;0.99;86.79;94456.12;1787632;80;20973;-75
2021/12/06 06:17:44;;;;;;;27.70;16.40;;;;;;;0.96;86.99;94456.12;1787602;80;20997;-78
2021/12/06 06:20:23;;;;;;;34.43;19.20;;;;;;;0.99;87.00;94460.45;1787287;80;21036;-70
2021/12/06 06:22:50;;;;;;;27.87;16.07;;;;;;;0.98;86.99;94465.20;1784563;80;21052;-79
2021/12/06 06:25:17;;;;;;;90.17;47.97;;;;;;;1.04;87.30;94478.20;1787117;80;21016;-74
2021/12/06 06:27:44;;;;;;;45.90;24.93;;;;;;;1.03;87.03;94472.55;1787341;80;21076;-77
2021/12/06 06:30:13;;;;;;;73.57;35.13;;;;;;;1.01;87.02;94478.21;1787293;80;21482;-75
2021/12/06 06:32:41;;;;;;;30.13;15.80;;;;;;;0.96;86.92;94489.89;1787569;80;21048;-75
2021/12/06 06:35:09;;;;;;;37.00;20.93;;;;;;;0.94;87.01;94489.45;1787624;80;20989;-75
2021/12/06 06:37:36;;;;;;;37.57;20.57;;;;;;;0.94;87.08;94483.83;1786995;80;21028;-69
2021/12/06 06:40:04;;;;;;;29.07;15.87;;;;;;;0.94;87.13;94498.55;1787211;80;21027;-70
2021/12/06 06:42:31;;;;;;;32.10;17.47;;;;;;;1.02;87.51;94504.60;1787733;80;21052;-70
2021/12/06 06:44:57;;;;;;;39.77;22.17;;;;;;;1.04;87.30;94509.38;1787242;80;21032;-71
2021/12/06 06:47:24;;;;;;;114.23;57.97;;;;;;;1.10;87.77;94506.77;1787329;80;21553;-77
2021/12/06 06:49:52;;;;;;;29.47;16.67;;;;;;;1.19;87.95;94513.70;1787345;80;21024;-71
2021/12/06 06:52:20;;;;;;;60.37;34.37;;;;;;;1.32;88.29;94511.53;1787192;80;21015;-73
2021/12/06 06:54:46;;;;;;;49.47;27.13;;;;;;;1.32;87.94;94512.83;1787617;80;21048;-73
2021/12/06 06:57:13;;;;;;;54.43;29.43;;;;;;;1.39;88.13;94503.30;1786785;80;21008;-72
2021/12/06 06:59:40;;;;;;;91.27;46.77;;;;;;;1.37;87.54;94494.64;1784137;80;20999;-76
2021/12/06 07:02:09;;;;;;;110.00;57.83;;;;;;;1.37;87.59;94494.20;1781627;79;21081;-80
2021/12/06 07:04:36;;;;;;;135.47;74.67;;;;;;;1.27;87.11;94486.84;1786902;80;20969;-77
2021/12/06 07:07:03;;;;;;;112.50;59.83;;;;;;;1.19;87.34;94496.38;1787256;80;21049;-75
2021/12/06 07:09:30;;;;;;;115.90;59.80;;;;;;;1.19;87.46;94504.61;1787649;80;21462;-74
2021/12/06 07:11:59;;;;;;;116.87;63.07;;;;;;;1.18;87.15;94506.32;1787351;79;21057;-70
2021/12/06 07:14:26;;;;;;;116.07;61.23;;;;;;;1.18;87.21;94503.72;1787280;79;20986;-83
2021/12/06 07:16:54;;;;;;;106.47;58.77;;;;;;;1.23;87.44;94496.79;1787341;79;21017;-76
2021/12/06 07:19:20;;;;;;;93.80;55.00;;;;;;;1.23;87.57;94500.69;1787744;79;20978;-71
2021/12/06 07:21:47;;;;;;;103.33;56.53;;;;;;;1.29;87.94;94502.00;1787332;80;21021;-69
2021/12/06 07:24:14;;;;;;;148.80;75.13;;;;;;;1.31;87.68;94511.11;1787585;80;21880;-68
2021/12/06 07:26:41;;;;;;;143.20;72.67;;;;;;;1.32;88.00;94499.83;1788132;80;21088;-71
2021/12/06 07:29:07;;;;;;;126.20;70.50;;;;;;;1.36;87.99;94495.08;1788653;80;21009;-69
2021/12/06 07:31:34;;;;;;;126.90;69.40;;;;;;;1.39;87.97;94505.91;1788571;80;21093;-73
2021/12/06 07:34:00;;;;;;;154.00;82.03;;;;;;;1.45;87.71;94506.74;1788689;80;21021;-71
2021/12/06 07:36:29;;;;;;;139.23;74.47;;;;;;;1.48;87.79;94500.23;1781098;80;21564;-73
2021/12/06 07:38:56;;;;;;;122.43;68.13;;;;;;;1.51;87.79;94493.75;1765708;80;21004;-71
2021/12/06 07:41:28;;;;;;;116.27;66.23;;;;;;;1.64;88.19;94489.39;1766388;81;21039;-71
2021/12/06 07:43:53;;;;;;;92.97;54.40;;;;;;;1.72;88.25;94486.34;1766898;80;21008;-72
2021/12/06 07:46:20;;;;;;;83.77;51.00;;;;;;;1.80;88.02;94485.45;1766767;80;21031;-75
2021/12/06 07:48:52;;;;;;;54.07;33.40;;;;;;;1.92;88.46;94490.18;1766760;80;21060;-74
2021/12/06 07:51:15;;;;;;;51.37;32.40;;;;;;;2.05;88.43;94487.54;1766140;81;21044;-71
2021/12/06 07:53:42;;;;;;;48.07;29.60;;;;;;;1.99;87.39;94491.03;1766952;81;21053;-73
2021/12/06 07:56:12;;;;;;;42.67;26.37;;;;;;;1.93;87.17;94493.64;1766060;81;20982;-78
2021/12/06 07:58:39;;;;;;;36.07;23.43;;;;;;;1.95;87.29;94500.56;1766982;81;20997;-74
2021/12/06 08:01:06;;;;;;;43.30;26.87;;;;;;;1.98;87.35;94504.04;1767338;81;21546;-77
2021/12/06 08:03:33;;;;;;;48.33;29.10;;;;;;;1.94;87.03;94504.05;1766741;81;20981;-81
2021/12/06 08:06:01;;;;;;;35.93;21.93;;;;;;;1.92;87.08;94496.69;1766587;81;21009;-78
2021/12/06 08:08:31;;;;;;;50.33;30.90;;;;;;;1.92;86.99;94498.42;1766201;81;21040;-77
2021/12/06 08:11:04;;;;;;;51.10;32.37;;;;;;;1.93;87.04;94502.30;1767105;81;21487;-70
2021/12/06 08:13:34;;;;;;;55.48;32.93;;;;;;;1.92;86.65;94514.89;1767592;81;20982;-72
2021/12/06 08:16:12;;;;;;;49.43;30.00;;;;;;;1.86;87.14;94520.09;1767249;81;20996;-76
2021/12/06 08:18:40;;;;;;;50.07;31.93;;;;;;;1.88;86.92;94516.20;1766868;81;21056;-75
2021/12/06 08:21:07;;;;;;;49.77;28.90;;;;;;;1.97;87.16;94523.13;1766968;81;21040;-74
2021/12/06 08:23:35;;;;;;;43.00;26.47;;;;;;;2.09;87.56;94522.66;1769990;80;21343;-79
2021/12/06 08:26:05;;;;;;;49.50;27.33;;;;;;;2.12;87.31;94517.88;1779455;81;20971;-79
2021/12/06 08:28:34;;;;;;;44.13;27.07;;;;;;;2.13;87.25;94524.36;1779155;80;21058;-73
2021/12/06 08:31:04;;;;;;;42.23;25.13;;;;;;;2.26;87.66;94521.71;1779416;81;21572;-79
2021/12/06 08:33:31;;;;;;;43.60;25.23;;;;;;;2.36;87.58;94519.05;1760069;81;21053;-79
2021/12/06 08:35:59;;;;;;;48.47;27.63;;;;;;;2.31;87.06;94528.63;1759772;81;20995;-74
2021/12/06 08:38:30;;;;;;;46.30;29.07;;;;;;;2.40;87.50;94535.98;1759994;81;20990;-72
2021/12/06 08:40:59;;;;;;;49.13;26.93;;;;;;;2.51;87.68;94531.58;1760089;81;20983;-72
2021/12/06 08:43:26;;;;;;;40.13;26.53;;;;;;;2.55;87.34;94528.96;1759751;81;21065;-82
2021/12/06 08:45:58;;;;;;;49.17;27.60;;;;;;;2.59;86.92;94528.05;1759962;81;21029;-75
2021/12/06 08:48:29;;;;;;;69.07;38.03;;;;;;;2.59;86.62;94528.05;1779278;81;21070;-74
2021/12/06 08:50:59;;;;;;;73.60;41.73;;;;;;;2.57;86.61;94532.43;1779332;81;21022;-75
2021/12/06 08:53:26;;;;;;;54.93;33.03;;;;;;;2.62;86.76;94537.63;1779388;81;21022;-71
2021/12/06 08:55:53;;;;;;;53.70;31.67;;;;;;;2.57;86.51;94540.24;1779491;81;21019;-71
2021/12/06 08:58:20;;;;;;;59.90;34.07;;;;;;;2.58;86.43;94531.98;1779060;81;21027;-70
2021/12/06 09:00:47;;;;;;;64.73;36.87;;;;;;;2.56;86.27;94533.28;1779467;81;20971;-88
2021/12/06 09:03:14;;;;;;;78.77;43.87;;;;;;;2.57;86.33;94535.45;1779212;81;21038;-75
2021/12/06 09:05:46;;;;;;;69.67;36.27;;;;;;;2.49;86.14;94534.18;1779189;81;21074;-78
2021/12/06 09:08:13;;;;;;;77.40;37.87;;;;;;;2.43;85.96;94530.31;1779353;81;21026;-70
2021/12/06 09:10:41;;;;;;;54.23;31.87;;;;;;;2.40;86.07;94534.24;1779626;81;21449;-73
2021/12/06 09:13:08;;;;;;;68.00;36.80;;;;;;;2.40;86.44;94534.69;1779027;81;21035;-68
2021/12/06 09:15:35;;;;;;;90.53;47.47;;;;;;;2.40;86.46;94541.20;1779391;80;21065;-70
2021/12/06 09:18:03;;;;;;;118.60;60.50;;;;;;;2.32;86.70;94536.87;1779177;81;21019;-72
2021/12/06 09:20:35;;;;;;;116.10;61.53;;;;;;;2.30;86.67;94541.22;1779307;81;21022;-72
2021/12/06 09:23:04;;;;;;;128.00;64.73;;;;;;;2.32;86.45;94539.48;1779461;81;20980;-72
2021/12/06 09:25:32;;;;;;;207.70;91.73;;;;;;;2.35;86.76;94534.26;1787111;80;21026;-72
2021/12/06 09:28:00;;;;;;;222.53;101.70;;;;;;;2.37;86.87;94529.92;1786957;80;21085;-71
2021/12/06 09:30:30;;;;;;;178.83;83.37;;;;;;;2.44;87.13;94532.03;1787159;80;21097;-70
2021/12/06 09:32:59;;;;;;;157.80;78.23;;;;;;;2.53;87.27;94524.64;1787396;80;21006;-73
2021/12/06 09:35:28;;;;;;;148.23;76.27;;;;;;;2.64;87.46;94524.12;1787837;80;20963;-70
2021/12/06 09:37:59;;;;;;;150.37;78.17;;;;;;;2.71;87.22;94515.86;1787277;80;21125;-72
2021/12/06 09:40:29;;;;;;;153.23;76.43;;;;;;;2.83;87.16;94512.33;1787111;80;21002;-71
2021/12/06 09:43:00;;;;;;;172.30;84.20;;;;;;;2.97;87.29;94502.66;1786770;80;21022;-74
2021/12/06 09:45:30;;;;;;;169.73;81.73;;;;;;;3.15;87.15;94501.65;1787877;79;21401;-79
2021/12/06 09:47:59;;;;;;;87.17;47.40;;;;;;;3.18;86.38;94506.42;1787409;80;20982;-77
2021/12/06 09:50:33;;;;;;;90.27;50.80;;;;;;;3.20;86.13;94511.60;1787961;79;20990;-75
2021/12/06 09:53:05;;;;;;;89.93;47.43;;;;;;;3.17;86.40;94507.28;1786533;80;21086;-75
2021/12/06 09:55:33;;;;;;;49.03;26.60;;;;;;;3.34;86.92;94508.91;1787555;80;21034;-78
2021/12/06 09:58:00;;;;;;;52.80;30.80;;;;;;;3.45;86.44;94508.36;1787370;80;21026;-73
2021/12/06 10:00:32;;;;;;;52.20;31.87;;;;;;;3.52;86.53;94509.18;1787412;80;20991;-74
2021/12/06 10:02:58;;;;;;;51.70;30.97;;;;;;;3.66;87.03;94515.14;1787811;80;21102;-74
2021/12/06 10:05:29;;;;;;;74.47;44.60;;;;;;;3.81;86.76;94515.44;1787639;79;21046;-74
2021/12/06 10:07:57;;;;;;;62.47;38.60;;;;;;;3.82;86.12;94507.58;1787547;79;21153;-74
2021/12/06 10:10:25;;;;;;;52.07;30.07;;;;;;;3.81;85.75;94509.77;1787727;79;20998;-79
2021/12/06 10:12:54;;;;;;;62.97;37.33;;;;;;;3.80;85.63;94507.17;1787716;80;21074;-68
2021/12/06 10:15:26;;;;;;;61.53;35.97;;;;;;;3.85;85.93;94504.07;1787373;79;20958;-88
2021/12/06 10:17:54;;;;;;;56.57;32.03;;;;;;;3.86;85.89;94500.16;1787526;80;21049;-74
2021/12/06 10:20:22;;;;;;;48.27;27.53;;;;;;;3.93;86.09;94503.98;1787686;79;21018;-73
2021/12/06 10:22:51;;;;;;;49.43;27.93;;;;;;;3.98;85.97;94499.58;1787000;80;21034;-74
2021/12/06 10:25:18;;;;;;;40.57;25.23;;;;;;;4.03;86.07;94492.16;1780762;80;21062;-78
2021/12/06 10:28:04;;;;;;;34.20;19.63;;;;;;;4.12;86.02;94496.39;1778348;81;21042;-79
2021/12/06 10:30:35;;;;;;;38.77;21.87;;;;;;;4.12;85.58;94492.48;1779499;81;21477;-77
2021/12/06 10:33:07;;;;;;;30.47;18.90;;;;;;;4.11;85.44;94490.76;1778448;80;21102;-77
2021/12/06 10:35:40;;;;;;;56.37;29.27;;;;;;;4.15;85.45;94495.49;1778197;80;21544;-77
2021/12/06 10:38:07;;;;;;;50.12;29.90;;;;;;;4.14;85.40;94498.55;1779282;80;21002;-75
2021/12/06 10:40:39;;;;;;;43.97;25.77;;;;;;;4.21;85.70;94511.07;1779139;81;21533;-73
2021/12/06 10:43:10;;;;;;;44.20;26.70;;;;;;;4.26;85.77;94512.77;1778961;80;21023;-76
2021/12/06 10:45:49;;;;;;;41.13;24.37;;;;;;;4.31;85.78;94507.50;1768893;81;22122;-76
2021/12/06 10:48:31;;;;;;;41.33;21.47;;;;;;;4.38;85.77;94509.58;1748791;81;21018;-70
2021/12/06 10:51:06;;;;;;;25.93;15.63;;;;;;;4.38;85.74;94509.12;1745716;81;21062;-74
2021/12/06 10:53:46;;;;;;;29.03;18.70;;;;;;;4.32;85.73;94510.52;1742531;81;21506;-80
2021/12/06 10:56:20;;;;;;;25.70;16.00;;;;;;;4.27;85.63;94504.48;1730805;83;20977;-74
2021/12/06 10:58:48;;;;;;;25.92;15.88;;;;;;;4.25;85.70;94500.58;1756633;81;21037;-74
2021/12/06 11:01:30;;;;;;;27.70;18.13;;;;;;;4.23;85.90;94505.39;1761432;81;20991;-74
2021/12/06 11:04:01;;;;;;;25.53;16.87;;;;;;;4.23;86.01;94504.95;1751751;81;21059;-72
2021/12/06 11:06:35;;;;;;;28.10;17.17;;;;;;;4.21;86.08;94505.84;1745922;81;20943;-75
2021/12/06 11:09:05;;;;;;;27.57;17.53;;;;;;;4.20;86.10;94504.98;1749867;80;21028;-72
2021/12/06 11:11:42;;;;;;;32.97;20.33;;;;;;;4.17;86.48;94513.31;1746706;81;21486;-74
2021/12/06 11:14:22;;;;;;;35.77;21.57;;;;;;;4.18;86.88;94515.88;1746976;82;21012;-71
2021/12/06 11:16:56;;;;;;;37.53;23.47;;;;;;;4.22;86.53;94520.20;1746718;82;21036;-69
2021/12/06 11:19:28;;;;;;;33.40;21.27;;;;;;;4.26;86.37;94518.44;1774900;80;21050;-70
2021/12/06 11:22:11;;;;;;;36.93;20.50;;;;;;;4.24;86.37;94513.22;1784482;80;21057;-69
2021/12/06 11:24:44;;;;;;;33.18;20.37;;;;;;;4.26;86.55;94511.91;1786830;80;21015;-69
2021/12/06 11:27:28;;;;;;;36.73;21.30;;;;;;;4.29;86.60;94509.26;1790896;80;21045;-69
2021/12/06 11:30:03;;;;;;;;;;;;;;;4.30;86.42;94505.30;1787194;80;20974;-69
2021/12/06 11:32:46;;;;;;;31.47;20.10;;;;;;;4.37;86.74;94503.94;1767981;80;20100;-69
2021/12/06 11:35:20;;;;;;;33.00;20.48;;;;;;;4.39;86.83;94501.73;1767276;81;21006;-76
2021/12/06 11:37:52;;;;;;;33.97;20.97;;;;;;;4.40;86.87;94507.81;1761942;80;21001;-70
2021/12/06 11:40:33;;;;;;;36.83;23.73;;;;;;;4.40;86.70;94508.67;1762030;81;21013;-84
2021/12/06 11:43:08;;;;;;;32.20;19.50;;;;;;;4.43;86.59;94502.55;1756225;82;21071;-75